Time;durP1;ratioP1;P1;durP2;ratioP2;P2;SDS_P1;SDS_P2;PMS_P1;PMS_P2;Temp;Humidity;BMP_temperature;BMP_pressure;BME280_temperature;BME280_humidity;BME280_pressure;Samples;Min_cycle;Max_cycle;Signal;HPM_P1;HPM_P2
2021/05/30 00:02:09;;;;;;;23.85;17.67;;;12.70;68.50;;;;;;5139060;27;20102;-80
2021/05/30 00:04:36;;;;;;;23.08;18.08;;;12.70;68.60;;;;;;5085995;27;20043;-80
2021/05/30 00:07:03;;;;;;;27.15;18.92;;;12.70;68.60;;;;;;5119857;27;20050;-80
2021/05/30 00:09:29;;;;;;;24.63;17.95;;;12.70;68.70;;;;;;5137848;27;20035;-80
2021/05/30 00:11:54;;;;;;;25.25;18.17;;;12.70;68.80;;;;;;5067789;27;20047;-79
2021/05/30 00:14:20;;;;;;;29.98;17.90;;;12.70;68.80;;;;;;5113646;27;20043;-81
2021/05/30 00:16:46;;;;;;;29.15;19.33;;;12.70;68.90;;;;;;5114840;27;20058;-80
2021/05/30 00:19:12;;;;;;;24.05;17.83;;;12.70;69.00;;;;;;5114937;27;20050;-81
2021/05/30 00:21:39;;;;;;;24.88;18.75;;;12.70;69.00;;;;;;5115074;27;20166;-80
2021/05/30 00:24:06;;;;;;;23.52;18.38;;;12.70;69.10;;;;;;5097487;27;20122;-82
2021/05/30 00:26:31;;;;;;;27.15;20.85;;;12.70;69.20;;;;;;5080399;27;20047;-80
2021/05/30 00:28:57;;;;;;;23.63;18.30;;;12.60;69.10;;;;;;5114588;27;20494;-81
2021/05/30 00:31:23;;;;;;;28.33;19.40;;;12.70;69.10;;;;;;5080275;27;20039;-80
2021/05/30 00:33:49;;;;;;;30.00;19.25;;;12.70;69.20;;;;;;5097620;27;20083;-80
2021/05/30 00:36:15;;;;;;;25.90;18.85;;;12.70;69.30;;;;;;5080394;27;20130;-83
2021/05/30 00:38:41;;;;;;;20.95;17.55;;;12.70;69.40;;;;;;5097575;27;20039;-80
2021/05/30 00:41:07;;;;;;;24.63;19.27;;;12.70;69.40;;;;;;5132959;27;20076;-80
2021/05/30 00:43:49;;;;;;;25.23;18.45;;;12.70;69.30;;;;;;5079149;27;20058;-80
2021/05/30 00:46:15;;;;;;;26.98;18.45;;;12.60;69.50;;;;;;5097766;28;20047;-80
2021/05/30 00:48:41;;;;;;;23.48;17.92;;;12.60;69.40;;;;;;5097126;28;20100;-80
2021/05/30 00:51:07;;;;;;;25.80;16.92;;;12.60;69.40;;;;;;5097260;27;20087;-80
2021/05/30 00:53:33;;;;;;;21.30;15.93;;;12.60;69.40;;;;;;5096720;27;20483;-81
2021/05/30 00:56:00;;;;;;;23.70;17.85;;;12.60;69.60;;;;;;5113697;28;20051;-81
2021/05/30 00:58:26;;;;;;;24.25;16.13;;;12.60;69.70;;;;;;5092686;28;20056;-80
2021/05/30 01:00:55;;;;;;;20.67;16.15;;;12.50;69.70;;;;;;5093859;28;20488;-80
2021/05/30 01:03:21;;;;;;;21.30;15.57;;;12.50;69.70;;;;;;5102905;28;20424;-81
2021/05/30 01:05:47;;;;;;;19.45;14.48;;;12.50;69.80;;;;;;5119402;28;20063;-81
2021/05/30 01:08:15;;;;;;;22.25;15.10;;;12.50;69.90;;;;;;5078572;28;20043;-80
2021/05/30 01:10:45;;;;;;;21.35;15.18;;;12.40;69.90;;;;;;5095157;28;20039;-80
2021/05/30 01:13:11;;;;;;;19.73;14.48;;;12.40;70.10;;;;;;5095065;28;20069;-80
2021/05/30 01:15:37;;;;;;;21.63;14.38;;;12.40;70.10;;;;;;5094643;28;20086;-80
2021/05/30 01:18:03;;;;;;;21.65;14.70;;;12.30;70.10;;;;;;5111757;28;20156;-79
2021/05/30 01:20:29;;;;;;;19.83;13.77;;;12.30;70.30;;;;;;5094411;28;20099;-80
2021/05/30 01:22:55;;;;;;;22.13;14.45;;;12.20;70.30;;;;;;5077676;28;20138;-80
2021/05/30 01:25:26;;;;;;;24.67;15.13;;;12.20;70.30;;;;;;5077123;28;20124;-82
2021/05/30 01:27:52;;;;;;;23.10;15.75;;;12.20;70.40;;;;;;5060463;28;20058;-81
2021/05/30 01:30:19;;;;;;;20.45;14.18;;;12.10;70.60;;;;;;5077256;28;20157;-80
2021/05/30 01:32:49;;;;;;;20.90;14.20;;;12.10;70.60;;;;;;5093340;28;20353;-81
2021/05/30 01:35:15;;;;;;;19.13;13.55;;;12.10;70.70;;;;;;5094539;28;20493;-80
2021/05/30 01:37:41;;;;;;;22.30;13.98;;;12.10;70.80;;;;;;5096684;28;20122;-81
2021/05/30 01:40:08;;;;;;;22.30;14.32;;;12.00;70.90;;;;;;5098033;28;20036;-80
2021/05/30 01:42:34;;;;;;;23.83;13.85;;;12.00;71.00;;;;;;5063469;28;20044;-80
2021/05/30 01:45:00;;;;;;;17.85;13.45;;;12.00;71.00;;;;;;5097628;28;20050;-80
2021/05/30 01:47:26;;;;;;;20.42;13.60;;;11.90;71.10;;;;;;5080316;28;20548;-80
2021/05/30 01:49:51;;;;;;;20.65;14.07;;;11.90;71.20;;;;;;5081027;28;20066;-80
2021/05/30 01:52:17;;;;;;;20.13;14.57;;;11.90;71.30;;;;;;5114626;28;20377;-79
2021/05/30 01:54:47;;;;;;;22.63;12.95;;;11.90;71.30;;;;;;5096673;28;20198;-81
2021/05/30 01:57:19;;;;;;;22.05;14.02;;;11.80;71.40;;;;;;5097746;28;20064;-80
2021/05/30 01:59:45;;;;;;;20.23;13.60;;;11.80;71.40;;;;;;5080083;28;20405;-80
2021/05/30 02:02:12;;;;;;;19.05;13.93;;;11.70;71.50;;;;;;5097358;28;20044;-80
2021/05/30 02:04:43;;;;;;;23.15;14.38;;;11.80;71.60;;;;;;5096952;28;20046;-80
2021/05/30 02:07:11;;;;;;;21.30;14.75;;;11.70;71.70;;;;;;5097558;28;20043;-80
2021/05/30 02:09:37;;;;;;;19.55;15.63;;;11.70;71.80;;;;;;5113451;28;20040;-80
2021/05/30 02:12:06;;;;;;;21.88;13.85;;;11.60;71.80;;;;;;5080995;28;20044;-80
2021/05/30 02:14:33;;;;;;;22.33;15.82;;;11.60;71.90;;;;;;5096025;28;20046;-80
2021/05/30 02:16:58;;;;;;;17.90;14.02;;;11.60;72.00;;;;;;5097283;28;20044;-81
2021/05/30 02:19:24;;;;;;;19.85;14.05;;;11.50;72.00;;;;;;5062979;28;20043;-80
2021/05/30 02:21:51;;;;;;;17.38;13.05;;;11.50;72.10;;;;;;5079496;28;20468;-80
2021/05/30 02:24:19;;;;;;;28.35;14.95;;;11.50;72.10;;;;;;5096716;28;20069;-80
2021/05/30 02:26:44;;;;;;;20.38;14.48;;;11.40;72.20;;;;;;5113185;28;20048;-80
2021/05/30 02:29:10;;;;;;;30.00;14.40;;;11.40;72.30;;;;;;5081072;28;20054;-80
2021/05/30 02:31:36;;;;;;;18.15;13.20;;;11.40;72.30;;;;;;5097103;28;20043;-81
2021/05/30 02:34:02;;;;;;;21.15;14.05;;;11.40;72.40;;;;;;5081256;28;20483;-79
2021/05/30 02:36:28;;;;;;;27.10;15.00;;;11.30;72.30;;;;;;5080970;28;20046;-81
2021/05/30 02:38:54;;;;;;;21.58;15.40;;;11.30;72.40;;;;;;5096493;28;20043;-81
2021/05/30 02:41:20;;;;;;;19.77;14.50;;;11.30;72.50;;;;;;5097727;28;20416;-81
2021/05/30 02:43:49;;;;;;;19.45;13.77;;;11.30;72.40;;;;;;5096905;28;20060;-81
2021/05/30 02:46:15;;;;;;;18.55;14.23;;;11.20;72.50;;;;;;5113246;28;20071;-81
2021/05/30 02:48:41;;;;;;;20.98;13.98;;;11.10;72.60;;;;;;5095472;28;20035;-81
2021/05/30 02:51:07;;;;;;;23.90;14.98;;;11.20;72.70;;;;;;5112953;28;20035;-81
2021/05/30 02:53:33;;;;;;;20.73;14.57;;;11.10;72.70;;;;;;5078531;28;20505;-83
2021/05/30 02:56:00;;;;;;;20.95;15.00;;;11.10;72.80;;;;;;5095936;28;20047;-81
2021/05/30 02:58:26;;;;;;;23.58;15.10;;;11.10;72.80;;;;;;5065880;28;20056;-80
2021/05/30 03:00:53;;;;;;;26.85;16.27;;;11.00;72.90;;;;;;5095110;28;20273;-80
2021/05/30 03:03:25;;;;;;;23.52;16.88;;;11.00;72.80;;;;;;5080648;28;20047;-80
2021/05/30 03:05:51;;;;;;;26.50;17.15;;;11.00;72.80;;;;;;5113328;28;20458;-81
2021/05/30 03:08:19;;;;;;;22.67;15.23;;;11.00;72.90;;;;;;5112739;28;20061;-80
2021/05/30 03:10:45;;;;;;;23.17;16.05;;;11.00;72.90;;;;;;5078696;28;20472;-81
2021/05/30 03:13:11;;;;;;;22.95;17.63;;;10.90;72.90;;;;;;5078730;28;20058;-81
2021/05/30 03:15:38;;;;;;;22.40;15.52;;;10.90;73.00;;;;;;5094003;28;20118;-81
2021/05/30 03:18:05;;;;;;;25.60;17.27;;;10.90;73.10;;;;;;5112811;28;20059;-80
2021/05/30 03:20:31;;;;;;;25.67;17.60;;;10.90;73.10;;;;;;5120991;28;20051;-80
2021/05/30 03:22:57;;;;;;;27.15;18.38;;;10.80;73.00;;;;;;5097615;28;20130;-80
2021/05/30 03:25:23;;;;;;;23.30;16.02;;;10.80;73.00;;;;;;5096516;28;20408;-80
2021/05/30 03:27:49;;;;;;;24.30;17.63;;;10.80;73.00;;;;;;5061417;28;20048;-81
2021/05/30 03:30:18;;;;;;;24.42;18.10;;;10.70;73.10;;;;;;5096121;28;20043;-81
2021/05/30 03:32:44;;;;;;;24.02;18.02;;;10.70;73.20;;;;;;5095464;28;20448;-82
2021/05/30 03:35:10;;;;;;;22.95;18.35;;;10.70;73.30;;;;;;5078879;28;20102;-80
2021/05/30 03:37:35;;;;;;;29.05;17.98;;;10.70;73.50;;;;;;5079039;28;20468;-80
2021/05/30 03:40:04;;;;;;;25.63;18.38;;;10.70;73.50;;;;;;5095302;28;20098;-81
2021/05/30 03:42:32;;;;;;;24.55;18.15;;;10.60;73.50;;;;;;5082965;28;20068;-79
2021/05/30 03:44:58;;;;;;;29.10;18.58;;;10.60;73.60;;;;;;5114665;28;20035;-79
2021/05/30 03:47:24;;;;;;;23.92;17.52;;;10.60;73.70;;;;;;5096062;28;20039;-80
2021/05/30 03:49:50;;;;;;;30.15;19.15;;;10.60;73.70;;;;;;5078434;28;20476;-80
2021/05/30 03:52:15;;;;;;;25.77;17.85;;;10.60;73.80;;;;;;5095636;28;20035;-80
2021/05/30 03:54:41;;;;;;;23.70;16.67;;;10.60;73.80;;;;;;5113914;28;20081;-82
2021/05/30 03:57:08;;;;;;;26.35;16.95;;;10.50;73.80;;;;;;5116066;28;20078;-81
2021/05/30 03:59:34;;;;;;;24.27;17.80;;;10.50;73.90;;;;;;5096933;28;20488;-80
2021/05/30 04:02:01;;;;;;;24.42;18.15;;;10.50;73.90;;;;;;5114536;28;20051;-79
2021/05/30 04:04:26;;;;;;;26.33;18.52;;;10.50;74.10;;;;;;5097449;28;20507;-80
2021/05/30 04:06:54;;;;;;;27.67;17.73;;;10.50;74.10;;;;;;5098666;28;20050;-80
2021/05/30 04:09:20;;;;;;;27.88;17.40;;;10.50;74.20;;;;;;5115532;28;20035;-80
2021/05/30 04:11:46;;;;;;;26.95;17.90;;;10.50;74.20;;;;;;5097744;28;20059;-81
2021/05/30 04:14:11;;;;;;;24.40;16.80;;;10.50;74.30;;;;;;5081405;28;20040;-81
2021/05/30 04:16:37;;;;;;;25.88;17.67;;;10.50;74.30;;;;;;5115531;28;20066;-81
2021/05/30 04:19:03;;;;;;;21.73;16.80;;;10.50;74.40;;;;;;5097710;28;20762;-80
2021/05/30 04:21:29;;;;;;;23.30;17.20;;;10.50;74.40;;;;;;5064916;28;20101;-80
2021/05/30 04:23:54;;;;;;;27.65;16.95;;;10.50;74.50;;;;;;5097343;28;20179;-80
2021/05/30 04:26:21;;;;;;;26.13;17.17;;;10.50;74.60;;;;;;5080842;28;20035;-80
2021/05/30 04:28:46;;;;;;;22.67;17.23;;;10.50;74.60;;;;;;5114065;28;20093;-81
2021/05/30 04:31:12;;;;;;;22.55;16.45;;;10.50;74.70;;;;;;5097843;28;20059;-81
2021/05/30 04:33:38;;;;;;;23.58;16.02;;;10.50;74.80;;;;;;5080682;28;20400;-79
2021/05/30 04:36:04;;;;;;;22.15;15.65;;;10.50;74.80;;;;;;5080144;28;20122;-80
2021/05/30 04:38:30;;;;;;;27.05;15.55;;;10.50;74.90;;;;;;5097864;28;20512;-79
2021/05/30 04:41:00;;;;;;;24.20;16.42;;;10.50;75.00;;;;;;5080310;28;20071;-80
2021/05/30 04:43:27;;;;;;;26.17;16.30;;;10.50;75.10;;;;;;5082023;28;20040;-80
2021/05/30 04:45:52;;;;;;;24.23;15.45;;;10.50;75.10;;;;;;5080152;28;20051;-80
2021/05/30 04:48:19;;;;;;;23.40;15.98;;;10.60;75.20;;;;;;5097527;28;20124;-79
2021/05/30 04:51:05;;;;;;;26.88;17.20;;;10.60;75.20;;;;;;5097933;28;20451;-80
2021/05/30 04:53:35;;;;;;;22.15;15.25;;;10.60;75.20;;;;;;5085743;28;20088;-80
2021/05/30 04:56:02;;;;;;;21.27;15.40;;;10.60;75.30;;;;;;5097824;28;20089;-80
2021/05/30 04:58:28;;;;;;;26.55;16.23;;;10.60;75.50;;;;;;5078383;28;20056;-81
2021/05/30 05:00:55;;;;;;;20.52;14.88;;;10.60;75.40;;;;;;5097042;28;20564;-80
2021/05/30 05:03:21;;;;;;;23.73;15.80;;;10.60;75.50;;;;;;5096680;28;20101;-80
2021/05/30 05:05:47;;;;;;;22.48;15.55;;;10.60;75.50;;;;;;5113578;28;20040;-81
2021/05/30 05:08:13;;;;;;;29.02;16.52;;;10.60;75.50;;;;;;5079876;28;20101;-80
2021/05/30 05:10:38;;;;;;;22.65;14.95;;;10.60;75.60;;;;;;5117430;28;20449;-80
2021/05/30 05:13:04;;;;;;;23.25;15.15;;;10.60;75.60;;;;;;5100916;28;20167;-81
2021/05/30 05:15:30;;;;;;;19.83;13.68;;;10.70;75.70;;;;;;5084227;28;20036;-79
2021/05/30 05:17:56;;;;;;;24.05;15.10;;;10.70;75.70;;;;;;5101197;28;20153;-79
2021/05/30 05:20:21;;;;;;;26.23;15.20;;;10.70;75.70;;;;;;5101317;28;20467;-80
2021/05/30 05:22:47;;;;;;;27.67;14.93;;;10.70;75.70;;;;;;5101030;28;20178;-79
2021/05/30 05:25:13;;;;;;;23.10;14.93;;;10.70;75.80;;;;;;5100518;28;20059;-79
2021/05/30 05:27:39;;;;;;;27.83;15.93;;;10.70;75.80;;;;;;5100516;28;20069;-80
2021/05/30 05:30:06;;;;;;;24.92;15.63;;;10.80;75.80;;;;;;5082938;28;20515;-79
2021/05/30 05:32:32;;;;;;;23.17;15.52;;;10.80;76.00;;;;;;5102865;28;20047;-79
2021/05/30 05:34:58;;;;;;;24.35;15.75;;;10.80;75.90;;;;;;5111334;28;20144;-80
2021/05/30 05:37:23;;;;;;;22.67;15.43;;;10.80;75.80;;;;;;5090285;28;20138;-80
2021/05/30 05:39:49;;;;;;;23.80;15.13;;;10.80;75.80;;;;;;5102680;28;20078;-80
2021/05/30 05:42:15;;;;;;;21.75;15.35;;;10.80;75.70;;;;;;5121685;28;20047;-79
2021/05/30 05:44:41;;;;;;;18.60;14.55;;;10.90;75.70;;;;;;5103907;28;20043;-78
2021/05/30 05:47:07;;;;;;;23.70;15.90;;;10.90;75.70;;;;;;5069188;28;20523;-79
2021/05/30 05:49:35;;;;;;;23.50;15.32;;;10.90;75.70;;;;;;5103494;28;20101;-79
2021/05/30 05:52:01;;;;;;;25.55;15.35;;;10.90;75.70;;;;;;5087508;28;20486;-80
2021/05/30 05:54:27;;;;;;;24.50;15.43;;;11.00;75.70;;;;;;5086440;28;20357;-78
2021/05/30 05:56:53;;;;;;;21.73;13.73;;;11.00;75.70;;;;;;5103726;28;20040;-79
2021/05/30 05:59:19;;;;;;;26.70;14.90;;;11.00;75.60;;;;;;5085023;28;20083;-79
2021/05/30 06:01:44;;;;;;;20.85;14.65;;;11.10;75.70;;;;;;5119820;28;20044;-79
2021/05/30 06:04:10;;;;;;;19.95;14.82;;;11.10;75.60;;;;;;5119737;28;20039;-79
2021/05/30 06:06:36;;;;;;;29.40;14.88;;;11.10;75.70;;;;;;5119530;28;20056;-80
2021/05/30 06:09:02;;;;;;;23.13;15.35;;;11.10;75.70;;;;;;5102642;28;20048;-80
2021/05/30 06:11:28;;;;;;;21.35;14.38;;;11.10;75.70;;;;;;5086346;28;20088;-78
2021/05/30 06:13:54;;;;;;;20.55;13.70;;;11.10;75.70;;;;;;5102178;28;20035;-80
2021/05/30 06:16:20;;;;;;;25.38;14.57;;;11.20;75.70;;;;;;5120552;28;20043;-80
2021/05/30 06:18:46;;;;;;;22.90;14.48;;;11.20;75.70;;;;;;5120217;28;20043;-79
2021/05/30 06:21:12;;;;;;;22.55;14.30;;;11.20;75.70;;;;;;5120022;28;20119;-79
2021/05/30 06:23:38;;;;;;;24.95;14.68;;;11.20;75.60;;;;;;5102042;28;20050;-77
2021/05/30 06:26:09;;;;;;;23.85;14.77;;;11.20;75.50;;;;;;5102075;28;20071;-78
2021/05/30 06:28:38;;;;;;;25.98;14.73;;;11.30;75.60;;;;;;5089133;28;20050;-80
2021/05/30 06:31:04;;;;;;;19.73;14.98;;;11.30;75.60;;;;;;5102366;28;20126;-81
2021/05/30 06:33:30;;;;;;;22.73;14.52;;;11.30;75.70;;;;;;5102585;28;20043;-79
2021/05/30 06:36:02;;;;;;;23.77;14.52;;;11.30;75.60;;;;;;5085415;28;20130;-79
2021/05/30 06:38:28;;;;;;;23.75;14.38;;;11.30;75.60;;;;;;5104019;28;20095;-79
2021/05/30 06:40:54;;;;;;;20.05;14.30;;;11.40;75.50;;;;;;5119661;28;20079;-78
2021/05/30 06:43:20;;;;;;;21.98;15.18;;;11.40;75.50;;;;;;5119871;28;20112;-79
2021/05/30 06:45:52;;;;;;;18.40;14.18;;;11.40;75.40;;;;;;5117743;28;20123;-80
2021/05/30 06:48:20;;;;;;;23.88;15.98;;;11.40;75.30;;;;;;5118363;28;20476;-80
2021/05/30 06:51:12;;;;;;;23.65;15.43;;;11.50;75.10;;;;;;5119312;28;20046;-79
2021/05/30 06:53:32;;;;;;;24.95;15.40;;;11.50;75.20;;;;;;5104827;28;20487;-79
2021/05/30 06:56:00;;;;;;;24.23;14.77;;;11.50;75.30;;;;;;5084796;28;20065;-80
2021/05/30 06:58:26;;;;;;;23.35;14.98;;;11.60;75.50;;;;;;5096763;27;20519;-78
2021/05/30 07:00:52;;;;;;;21.40;14.25;;;11.60;75.40;;;;;;5121953;27;20047;-80
2021/05/30 07:03:17;;;;;;;19.38;14.63;;;11.60;75.40;;;;;;5140002;27;20091;-80
2021/05/30 07:05:43;;;;;;;19.48;15.52;;;11.70;75.50;;;;;;5088114;27;20058;-78
2021/05/30 07:08:23;;;;;;;23.50;15.50;;;11.70;75.60;;;;;;5091467;27;20084;-79
2021/05/30 07:10:49;;;;;;;23.42;15.07;;;11.70;75.90;;;;;;5121775;27;20395;-77
2021/05/30 07:13:14;;;;;;;23.98;15.65;;;11.70;75.50;;;;;;5087600;27;20055;-79
2021/05/30 07:15:41;;;;;;;28.17;15.82;;;11.80;75.30;;;;;;5120969;27;20043;-77
2021/05/30 07:18:09;;;;;;;22.38;14.85;;;11.80;75.50;;;;;;5104942;27;20043;-81
2021/05/30 07:20:42;;;;;;;23.15;14.48;;;11.80;75.40;;;;;;5089229;27;20047;-80
2021/05/30 07:23:09;;;;;;;24.48;15.50;;;11.80;75.40;;;;;;5088998;27;20390;-82
2021/05/30 07:25:35;;;;;;;23.75;14.15;;;11.80;75.70;;;;;;5122183;27;20039;-79
2021/05/30 07:28:01;;;;;;;22.05;15.70;;;11.90;75.90;;;;;;5070114;27;20093;-78
2021/05/30 07:30:27;;;;;;;23.20;14.48;;;11.90;76.10;;;;;;5103624;27;20076;-80
2021/05/30 07:32:53;;;;;;;20.20;13.95;;;11.90;76.30;;;;;;5104817;27;20428;-79
2021/05/30 07:35:22;;;;;;;24.50;15.38;;;11.90;76.20;;;;;;5103803;27;20035;-79
2021/05/30 07:37:48;;;;;;;23.65;16.15;;;11.90;76.20;;;;;;5119906;27;20118;-79
2021/05/30 07:40:14;;;;;;;25.33;16.05;;;12.00;76.40;;;;;;5120254;27;20118;-80
2021/05/30 07:42:42;;;;;;;24.20;15.23;;;12.00;76.50;;;;;;5121609;27;20043;-80
2021/05/30 07:45:08;;;;;;;23.95;17.10;;;12.10;76.30;;;;;;5104889;27;20137;-81
2021/05/30 07:47:34;;;;;;;29.05;17.75;;;12.10;76.20;;;;;;5086948;27;20050;-80
2021/05/30 07:50:00;;;;;;;23.35;15.77;;;12.10;76.30;;;;;;5120983;27;20039;-79
2021/05/30 07:52:26;;;;;;;22.85;15.52;;;12.20;76.30;;;;;;5120038;27;20118;-79
2021/05/30 07:54:53;;;;;;;27.65;17.30;;;12.20;76.20;;;;;;5102612;27;20099;-79
2021/05/30 07:57:20;;;;;;;29.48;18.23;;;12.20;76.30;;;;;;5120188;27;20476;-79
2021/05/30 07:59:49;;;;;;;23.60;16.08;;;12.30;76.40;;;;;;5086816;27;20104;-80
2021/05/30 08:02:18;;;;;;;23.50;16.45;;;12.30;76.30;;;;;;5088452;27;20039;-81
2021/05/30 08:04:44;;;;;;;22.65;16.70;;;12.40;76.30;;;;;;5105556;27;20065;-79
2021/05/30 08:07:12;;;;;;;28.15;17.83;;;12.40;76.20;;;;;;5122046;27;20043;-79
2021/05/30 08:09:38;;;;;;;23.90;16.50;;;12.50;76.00;;;;;;5121784;27;20039;-79
2021/05/30 08:12:04;;;;;;;25.15;18.60;;;12.50;75.90;;;;;;5104026;27;20415;-79
2021/05/30 08:14:30;;;;;;;27.05;18.38;;;12.50;76.10;;;;;;5103786;27;20053;-79
2021/05/30 08:17:08;;;;;;;27.90;18.17;;;12.50;76.50;;;;;;5091286;27;20110;-79
2021/05/30 08:19:34;;;;;;;26.40;18.30;;;12.60;76.40;;;;;;5087090;27;20050;-79
2021/05/30 08:22:00;;;;;;;24.98;18.15;;;12.60;76.20;;;;;;5104080;27;20397;-80
2021/05/30 08:24:27;;;;;;;26.40;18.33;;;12.70;76.20;;;;;;5087373;27;20062;-79
2021/05/30 08:26:53;;;;;;;25.85;17.75;;;12.80;76.10;;;;;;5104864;27;20039;-79
2021/05/30 08:29:20;;;;;;;26.17;18.60;;;12.80;76.10;;;;;;5120889;27;20039;-80
2021/05/30 08:31:49;;;;;;;26.95;18.20;;;12.90;76.10;;;;;;5104716;27;20078;-80
2021/05/30 08:34:15;;;;;;;30.38;19.88;;;12.90;76.00;;;;;;5120411;27;20039;-79
2021/05/30 08:36:41;;;;;;;26.05;20.08;;;13.00;76.20;;;;;;5087132;27;20055;-80
2021/05/30 08:39:09;;;;;;;28.55;19.92;;;13.10;76.60;;;;;;5121681;27;20047;-79
2021/05/30 08:41:38;;;;;;;24.70;18.38;;;13.10;77.00;;;;;;5088121;27;20051;-79
2021/05/30 08:44:04;;;;;;;26.08;17.80;;;13.20;77.00;;;;;;5105108;27;20031;-80
2021/05/30 08:46:31;;;;;;;33.03;20.02;;;13.30;77.00;;;;;;5120664;27;20039;-80
2021/05/30 08:48:59;;;;;;;26.58;19.60;;;13.40;77.20;;;;;;5087767;27;20050;-79
2021/05/30 08:51:27;;;;;;;27.52;19.35;;;13.40;77.10;;;;;;5104977;27;20055;-80
2021/05/30 08:53:54;;;;;;;25.67;18.42;;;13.50;77.10;;;;;;5122801;28;20035;-80
2021/05/30 08:56:39;;;;;;;28.38;19.92;;;13.60;77.20;;;;;;5142594;27;1621740;-80
2021/05/30 08:59:33;;;;;;;25.17;18.70;;;13.70;76.60;;;;;;5145611;27;20179;-79
2021/05/30 09:02:10;;;;;;;28.80;18.35;;;13.80;76.50;;;;;;5142530;27;20043;-79
2021/05/30 09:04:36;;;;;;;25.38;18.27;;;13.90;76.30;;;;;;5143217;27;20046;-80
2021/05/30 09:07:02;;;;;;;27.35;17.92;;;14.00;76.10;;;;;;5143066;27;20094;-79
2021/05/30 09:09:44;;;;;;;25.00;17.38;;;14.10;76.10;;;;;;5108517;27;20514;-79
2021/05/30 09:12:25;;;;;;;25.08;17.63;;;14.30;76.70;;;;;;5159929;27;20066;-79
2021/05/30 09:14:53;;;;;;;29.65;18.45;;;14.40;76.10;;;;;;5142754;27;20083;-79
2021/05/30 09:17:19;;;;;;;23.95;17.35;;;14.50;76.00;;;;;;5142230;27;20042;-80
2021/05/30 09:20:10;;;;;;;23.73;16.85;;;14.70;76.10;;;;;;5144056;27;20475;-79
2021/05/30 09:22:40;;;;;;;22.45;16.85;;;14.90;76.60;;;;;;5160433;27;20042;-80
2021/05/30 09:25:18;;;;;;;22.92;16.52;;;15.00;76.00;;;;;;5177977;27;20122;-78
2021/05/30 09:27:53;;;;;;;23.17;16.35;;;15.20;76.20;;;;;;5175403;27;20045;-79
2021/05/30 09:30:24;;;;;;;20.92;16.48;;;15.40;75.60;;;;;;5141703;27;20458;-79
2021/05/30 09:32:53;;;;;;;22.70;16.23;;;15.60;75.30;;;;;;5159930;27;20038;-80
2021/05/30 09:35:23;;;;;;;24.20;16.77;;;15.70;74.80;;;;;;5160299;27;20113;-79
2021/05/30 09:38:04;;;;;;;22.70;16.15;;;15.90;74.80;;;;;;5124009;27;20165;-79
2021/05/30 09:40:41;;;;;;;27.00;15.68;;;16.10;74.80;;;;;;5158464;27;20121;-78
2021/05/30 09:43:09;;;;;;;22.40;17.05;;;16.30;74.70;;;;;;5124579;27;20054;-80
2021/05/30 09:45:36;;;;;;;25.20;16.27;;;16.40;74.30;;;;;;5123790;27;20050;-79
2021/05/30 09:48:03;;;;;;;22.42;15.60;;;16.60;74.20;;;;;;5124787;27;20034;-78
2021/05/30 09:50:32;;;;;;;23.63;15.88;;;16.80;73.80;;;;;;5158507;27;20045;-79
2021/05/30 09:52:59;;;;;;;26.25;16.52;;;17.00;73.90;;;;;;5142371;27;20042;-79
2021/05/30 09:55:27;;;;;;;22.33;15.07;;;17.30;73.40;;;;;;5140469;27;20397;-78
2021/05/30 09:58:16;;;;;;;18.80;15.15;;;17.40;72.80;;;;;;5158032;27;20034;-78
2021/05/30 10:00:43;;;;;;;23.58;14.13;;;17.60;72.00;;;;;;5124774;27;20107;-79
2021/05/30 10:03:09;;;;;;;22.23;15.63;;;17.80;71.60;;;;;;5141142;27;20074;-79
2021/05/30 10:05:35;;;;;;;17.55;13.73;;;17.90;70.90;;;;;;5147400;27;20039;-80
2021/05/30 10:08:01;;;;;;;18.35;13.30;;;18.10;70.50;;;;;;5098662;27;20054;-79
2021/05/30 10:10:27;;;;;;;15.80;13.45;;;18.30;70.20;;;;;;5127037;27;20050;-80
2021/05/30 10:12:53;;;;;;;17.85;12.60;;;18.40;70.10;;;;;;5127534;27;20503;-80
2021/05/30 10:15:19;;;;;;;16.98;13.02;;;18.60;69.60;;;;;;5110968;27;20042;-80
2021/05/30 10:17:45;;;;;;;18.38;14.15;;;18.80;69.30;;;;;;5110882;27;20394;-80
2021/05/30 10:20:16;;;;;;;16.35;14.05;;;19.00;68.60;;;;;;5111503;27;20118;-78
2021/05/30 10:22:44;;;;;;;18.95;12.75;;;19.20;67.60;;;;;;5127536;27;20502;-78
2021/05/30 10:25:14;;;;;;;16.70;12.93;;;19.30;66.90;;;;;;5112208;27;20045;-79
2021/05/30 10:27:45;;;;;;;17.67;12.68;;;19.50;66.60;;;;;;5127292;27;20097;-79
2021/05/30 10:30:15;;;;;;;19.30;12.40;;;19.60;66.10;;;;;;5129055;27;20047;-79
2021/05/30 10:32:44;;;;;;;;;;;19.80;66.10;;;;;;5128281;27;20031;-78
2021/05/30 10:35:31;;;;;;;16.13;12.43;;;20.00;66.10;;;;;;5144151;27;19998;-78
2021/05/30 10:37:57;;;;;;;18.58;12.10;;;20.20;65.50;;;;;;5129561;27;20066;-78
2021/05/30 10:40:23;;;;;;;20.08;12.32;;;20.40;65.00;;;;;;5126470;27;20482;-80
2021/05/30 10:43:14;;;;;;;16.70;11.82;;;20.50;64.40;;;;;;5142757;27;20046;-79
2021/05/30 10:45:42;;;;;;;14.45;11.98;;;20.70;63.80;;;;;;5142044;27;20047;-78
2021/05/30 10:48:11;;;;;;;16.42;10.90;;;20.80;63.50;;;;;;5161773;27;20035;-81
2021/05/30 10:50:58;;;;;;;18.40;11.88;;;21.00;63.30;;;;;;5143361;27;20058;-79
2021/05/30 10:53:36;;;;;;;15.30;11.00;;;21.20;62.80;;;;;;5128748;27;20091;-79
2021/05/30 10:56:39;;;;;;;14.60;10.50;;;21.40;62.10;;;;;;5142958;27;20436;-79
2021/05/30 10:59:07;;;;;;;15.30;10.75;;;21.60;61.80;;;;;;5145383;27;20045;-81
2021/05/30 11:04:29;;;;;;;14.63;8.93;;;22.00;60.00;;;;;;5160714;27;20478;-79
2021/05/30 11:07:00;;;;;;;11.07;9.25;;;22.20;59.20;;;;;;5124898;27;20119;-79
2021/05/30 11:09:51;;;;;;;14.52;9.65;;;22.40;58.90;;;;;;5125018;27;20394;-79
2021/05/30 11:12:24;;;;;;;12.32;8.20;;;22.60;58.20;;;;;;5142282;27;20038;-78
2021/05/30 11:15:26;;;;;;;10.63;9.27;;;22.90;58.00;;;;;;5108951;27;20049;-78
2021/05/30 11:17:57;;;;;;;9.18;8.23;;;23.10;57.10;;;;;;5141714;27;20119;-79
2021/05/30 11:20:24;;;;;;;9.77;8.30;;;23.40;56.40;;;;;;5124852;27;20121;-79
2021/05/30 11:22:58;;;;;;;9.55;8.02;;;23.70;56.00;;;;;;5141594;27;20049;-79
2021/05/30 11:25:54;;;;;;;10.88;8.02;;;23.90;55.40;;;;;;5125664;27;20459;-79
2021/05/30 11:28:24;;;;;;;11.27;8.45;;;24.20;53.40;;;;;;5126074;27;20106;-80
2021/05/30 11:30:51;;;;;;;10.52;8.25;;;24.50;53.00;;;;;;5109216;27;20102;-80
2021/05/30 11:33:25;;;;;;;10.52;8.52;;;24.70;52.60;;;;;;5142716;27;20122;-80
2021/05/30 11:35:52;;;;;;;10.50;8.18;;;25.00;51.70;;;;;;5124870;27;20046;-79
2021/05/30 11:38:18;;;;;;;9.98;8.57;;;25.40;51.30;;;;;;5125724;27;20467;-80
2021/05/30 11:40:44;;;;;;;10.65;8.65;;;25.60;50.70;;;;;;5107709;27;20548;-78
2021/05/30 11:43:16;;;;;;;11.27;8.70;;;25.80;50.40;;;;;;5109546;27;20122;-79
2021/05/30 11:45:46;;;;;;;11.05;8.30;;;26.10;49.70;;;;;;5125567;27;20464;-80
2021/05/30 11:48:14;;;;;;;10.75;8.98;;;26.40;48.90;;;;;;5143384;27;20054;-78
2021/05/30 11:50:50;;;;;;;9.30;7.65;;;26.60;49.00;;;;;;5143492;27;20050;-79
2021/05/30 11:53:28;;;;;;;11.25;9.27;;;26.80;47.60;;;;;;5127189;27;20040;-79
2021/05/30 11:55:57;;;;;;;9.98;8.52;;;27.10;46.80;;;;;;5108825;27;20080;-81
2021/05/30 11:58:23;;;;;;;10.90;8.43;;;27.30;46.90;;;;;;5109625;27;20046;-79
2021/05/30 12:01:03;;;;;;;11.25;8.98;;;27.50;46.60;;;;;;5125006;27;20042;-79
2021/05/30 12:03:29;;;;;;;9.55;8.55;;;27.70;45.60;;;;;;5125363;27;20035;-79
2021/05/30 12:06:04;;;;;;;11.15;7.95;;;27.90;45.40;;;;;;5125214;27;20436;-77
2021/05/30 12:08:30;;;;;;;10.82;8.63;;;28.00;44.30;;;;;;5125351;27;20057;-80
2021/05/30 12:10:58;;;;;;;8.85;7.88;;;28.20;44.50;;;;;;5091058;27;20046;-79
2021/05/30 12:13:34;;;;;;;8.95;8.05;;;28.30;43.90;;;;;;5125539;27;20043;-80
2021/05/30 12:16:19;;;;;;;11.45;7.82;;;28.50;43.40;;;;;;5108640;27;20137;-80
2021/05/30 12:18:58;;;;;;;9.35;7.85;;;28.60;42.90;;;;;;5125887;27;20135;-80
2021/05/30 12:21:26;;;;;;;10.45;9.27;;;28.80;43.00;;;;;;5116380;27;20043;-79
2021/05/30 12:23:52;;;;;;;11.38;9.23;;;28.90;42.60;;;;;;5129280;27;20038;-79
2021/05/30 12:26:18;;;;;;;9.88;8.48;;;29.00;42.30;;;;;;5106134;27;20064;-79
2021/05/30 12:28:46;;;;;;;9.40;8.40;;;29.10;42.00;;;;;;5125583;27;20047;-80
2021/05/30 12:31:22;;;;;;;9.90;8.52;;;29.10;41.90;;;;;;5109861;27;20041;-78
2021/05/30 12:33:55;;;;;;;10.27;8.40;;;29.20;41.40;;;;;;5110705;27;20066;-79
2021/05/30 12:36:32;;;;;;;10.68;8.82;;;29.40;41.10;;;;;;5161681;27;20161;-79
2021/05/30 12:39:10;;;;;;;12.82;9.45;;;29.50;41.30;;;;;;5108586;27;20049;-79